sensor_id;sensor_type;location;lat;lon;timestamp;P1;durP1;ratioP1;P2;durP2;ratioP2
18066;SDS011;9158;51.528;7.192;2023-07-29T00:00:07;6.40;;;2.75;;
18066;SDS011;9158;51.528;7.192;2023-07-29T00:00:45;3.50;;;2.75;;
18066;SDS011;9158;51.528;7.192;2023-07-29T00:01:16;2.60;;;2.40;;
18066;SDS011;9158;51.528;7.192;2023-07-29T00:01:48;2.40;;;2.20;;
18066;SDS011;9158;51.528;7.192;2023-07-29T00:02:19;2.80;;;2.60;;
18066;SDS011;9158;51.528;7.192;2023-07-29T00:02:50;3.10;;;2.90;;
18066;SDS011;9158;51.528;7.192;2023-07-29T00:03:22;3.00;;;2.80;;
18066;SDS011;9158;51.528;7.192;2023-07-29T00:03:54;2.95;;;2.65;;
18066;SDS011;9158;51.528;7.192;2023-07-29T00:04:26;3.60;;;2.55;;
18066;SDS011;9158;51.528;7.192;2023-07-29T00:04:57;6.57;;;3.53;;
18066;SDS011;9158;51.528;7.192;2023-07-29T00:05:28;4.20;;;3.80;;
18066;SDS011;9158;51.528;7.192;2023-07-29T00:06:00;3.13;;;2.83;;
18066;SDS011;9158;51.528;7.192;2023-07-29T00:06:30;4.60;;;3.10;;
18066;SDS011;9158;51.528;7.192;2023-07-29T00:07:01;2.80;;;2.60;;
18066;SDS011;9158;51.528;7.192;2023-07-29T00:07:32;4.03;;;2.90;;
18066;SDS011;9158;51.528;7.192;2023-07-29T00:08:05;2.78;;;2.58;;
18066;SDS011;9158;51.528;7.192;2023-07-29T00:08:36;3.50;;;2.13;;
18066;SDS011;9158;51.528;7.192;2023-07-29T00:09:07;3.30;;;2.57;;
18066;SDS011;9158;51.528;7.192;2023-07-29T00:09:38;2.90;;;2.42;;
18066;SDS011;9158;51.528;7.192;2023-07-29T00:10:10;2.10;;;1.92;;
18066;SDS011;9158;51.528;7.192;2023-07-29T00:10:41;2.60;;;2.10;;
18066;SDS011;9158;51.528;7.192;2023-07-29T00:11:12;2.72;;;2.38;;
18066;SDS011;9158;51.528;7.192;2023-07-29T00:11:43;2.23;;;2.07;;
18066;SDS011;9158;51.528;7.192;2023-07-29T00:12:14;4.75;;;2.97;;
18066;SDS011;9158;51.528;7.192;2023-07-29T00:12:45;2.30;;;2.10;;
18066;SDS011;9158;51.528;7.192;2023-07-29T00:13:16;2.70;;;2.20;;
18066;SDS011;9158;51.528;7.192;2023-07-29T00:13:47;2.53;;;2.33;;
18066;SDS011;9158;51.528;7.192;2023-07-29T00:14:20;3.20;;;2.00;;
18066;SDS011;9158;51.528;7.192;2023-07-29T00:14:51;2.40;;;2.20;;
18066;SDS011;9158;51.528;7.192;2023-07-29T00:15:22;2.13;;;1.90;;
18066;SDS011;9158;51.528;7.192;2023-07-29T00:15:53;2.70;;;2.40;;
18066;SDS011;9158;51.528;7.192;2023-07-29T00:16:25;2.60;;;2.45;;
18066;SDS011;9158;51.528;7.192;2023-07-29T00:16:56;2.20;;;2.10;;
18066;SDS011;9158;51.528;7.192;2023-07-29T00:17:27;3.20;;;1.80;;
18066;SDS011;9158;51.528;7.192;2023-07-29T00:17:58;2.70;;;1.90;;
18066;SDS011;9158;51.528;7.192;2023-07-29T00:18:31;2.45;;;2.25;;
18066;SDS011;9158;51.528;7.192;2023-07-29T00:19:03;2.53;;;2.33;;
18066;SDS011;9158;51.528;7.192;2023-07-29T00:19:34;2.30;;;2.10;;
18066;SDS011;9158;51.528;7.192;2023-07-29T00:20:05;2.50;;;1.93;;
18066;SDS011;9158;51.528;7.192;2023-07-29T00:20:38;2.42;;;2.00;;
18066;SDS011;9158;51.528;7.192;2023-07-29T00:21:09;2.47;;;2.37;;
18066;SDS011;9158;51.528;7.192;2023-07-29T00:21:40;3.00;;;2.70;;
18066;SDS011;9158;51.528;7.192;2023-07-29T00:22:11;2.57;;;2.17;;
18066;SDS011;9158;51.528;7.192;2023-07-29T00:22:43;2.22;;;2.10;;
18066;SDS011;9158;51.528;7.192;2023-07-29T00:23:14;2.23;;;2.03;;
18066;SDS011;9158;51.528;7.192;2023-07-29T00:23:45;2.13;;;2.03;;
18066;SDS011;9158;51.528;7.192;2023-07-29T00:24:16;2.60;;;2.40;;
18066;SDS011;9158;51.528;7.192;2023-07-29T00:24:50;3.05;;;2.45;;
18066;SDS011;9158;51.528;7.192;2023-07-29T00:25:23;2.65;;;2.45;;
18066;SDS011;9158;51.528;7.192;2023-07-29T00:25:54;2.20;;;2.10;;
18066;SDS011;9158;51.528;7.192;2023-07-29T00:26:25;2.50;;;2.40;;
18066;SDS011;9158;51.528;7.192;2023-07-29T00:27:00;3.63;;;2.22;;
18066;SDS011;9158;51.528;7.192;2023-07-29T00:27:31;2.80;;;2.60;;
18066;SDS011;9158;51.528;7.192;2023-07-29T00:28:02;2.20;;;2.10;;
18066;SDS011;9158;51.528;7.192;2023-07-29T00:28:33;2.15;;;2.05;;
18066;SDS011;9158;51.528;7.192;2023-07-29T00:29:05;5.40;;;2.78;;
18066;SDS011;9158;51.528;7.192;2023-07-29T00:29:37;3.05;;;2.42;;
18066;SDS011;9158;51.528;7.192;2023-07-29T00:30:08;3.50;;;3.20;;
18066;SDS011;9158;51.528;7.192;2023-07-29T00:30:40;5.50;;;5.00;;
18066;SDS011;9158;51.528;7.192;2023-07-29T00:31:12;4.22;;;3.83;;
18066;SDS011;9158;51.528;7.192;2023-07-29T00:31:43;2.53;;;2.30;;
18066;SDS011;9158;51.528;7.192;2023-07-29T00:32:14;3.00;;;2.80;;
18066;SDS011;9158;51.528;7.192;2023-07-29T00:32:45;2.97;;;2.50;;
18066;SDS011;9158;51.528;7.192;2023-07-29T00:33:16;3.38;;;2.60;;
18066;SDS011;9158;51.528;7.192;2023-07-29T00:33:49;2.30;;;2.20;;
18066;SDS011;9158;51.528;7.192;2023-07-29T00:34:20;2.78;;;2.58;;
18066;SDS011;9158;51.528;7.192;2023-07-29T00:34:51;5.63;;;2.27;;
18066;SDS011;9158;51.528;7.192;2023-07-29T00:35:22;2.50;;;2.30;;
18066;SDS011;9158;51.528;7.192;2023-07-29T00:35:53;2.83;;;2.60;;
18066;SDS011;9158;51.528;7.192;2023-07-29T00:36:24;3.70;;;3.40;;
18066;SDS011;9158;51.528;7.192;2023-07-29T00:36:55;2.77;;;2.63;;
18066;SDS011;9158;51.528;7.192;2023-07-29T00:37:27;3.45;;;3.15;;
18066;SDS011;9158;51.528;7.192;2023-07-29T00:38:00;2.80;;;2.60;;
18066;SDS011;9158;51.528;7.192;2023-07-29T00:38:31;2.77;;;2.57;;
18066;SDS011;9158;51.528;7.192;2023-07-29T00:39:03;3.63;;;2.60;;
18066;SDS011;9158;51.528;7.192;2023-07-29T00:39:34;2.88;;;2.67;;
18066;SDS011;9158;51.528;7.192;2023-07-29T00:40:07;3.38;;;2.83;;
18066;SDS011;9158;51.528;7.192;2023-07-29T00:40:44;2.55;;;2.35;;
18066;SDS011;9158;51.528;7.192;2023-07-29T00:41:16;3.00;;;2.80;;
18066;SDS011;9158;51.528;7.192;2023-07-29T00:41:48;3.00;;;2.80;;
18066;SDS011;9158;51.528;7.192;2023-07-29T00:42:19;3.15;;;2.67;;
18066;SDS011;9158;51.528;7.192;2023-07-29T00:42:52;3.13;;;2.42;;
18066;SDS011;9158;51.528;7.192;2023-07-29T00:43:23;3.78;;;2.92;;
18066;SDS011;9158;51.528;7.192;2023-07-29T00:43:54;3.40;;;2.67;;
18066;SDS011;9158;51.528;7.192;2023-07-29T00:44:26;2.60;;;2.40;;
18066;SDS011;9158;51.528;7.192;2023-07-29T00:44:58;3.03;;;2.83;;
18066;SDS011;9158;51.528;7.192;2023-07-29T00:45:30;3.28;;;2.78;;
18066;SDS011;9158;51.528;7.192;2023-07-29T00:46:03;3.50;;;3.10;;
18066;SDS011;9158;51.528;7.192;2023-07-29T00:46:35;4.03;;;2.95;;
18066;SDS011;9158;51.528;7.192;2023-07-29T00:47:08;2.60;;;2.40;;
18066;SDS011;9158;51.528;7.192;2023-07-29T00:47:39;2.88;;;2.70;;
18066;SDS011;9158;51.528;7.192;2023-07-29T00:48:11;2.85;;;2.65;;
18066;SDS011;9158;51.528;7.192;2023-07-29T00:48:44;2.67;;;2.47;;
18066;SDS011;9158;51.528;7.192;2023-07-29T00:49:16;3.28;;;3.03;;
18066;SDS011;9158;51.528;7.192;2023-07-29T00:49:47;2.90;;;2.70;;
18066;SDS011;9158;51.528;7.192;2023-07-29T00:50:18;4.15;;;3.67;;
18066;SDS011;9158;51.528;7.192;2023-07-29T00:50:51;3.30;;;3.00;;
18066;SDS011;9158;51.528;7.192;2023-07-29T00:51:22;4.00;;;3.15;;
18066;SDS011;9158;51.528;7.192;2023-07-29T00:51:53;4.05;;;3.17;;
18066;SDS011;9158;51.528;7.192;2023-07-29T00:52:24;3.10;;;2.80;;
18066;SDS011;9158;51.528;7.192;2023-07-29T00:52:58;2.63;;;2.42;;
18066;SDS011;9158;51.528;7.192;2023-07-29T00:53:29;2.63;;;2.42;;
18066;SDS011;9158;51.528;7.192;2023-07-29T00:54:00;3.65;;;3.30;;
18066;SDS011;9158;51.528;7.192;2023-07-29T00:54:31;3.30;;;2.77;;
18066;SDS011;9158;51.528;7.192;2023-07-29T00:55:03;2.60;;;2.50;;
18066;SDS011;9158;51.528;7.192;2023-07-29T00:55:35;3.45;;;3.15;;
18066;SDS011;9158;51.528;7.192;2023-07-29T00:56:07;2.65;;;2.45;;
18066;SDS011;9158;51.528;7.192;2023-07-29T00:56:37;2.93;;;2.73;;
18066;SDS011;9158;51.528;7.192;2023-07-29T00:57:10;2.60;;;2.40;;
18066;SDS011;9158;51.528;7.192;2023-07-29T00:57:44;3.65;;;3.35;;
18066;SDS011;9158;51.528;7.192;2023-07-29T00:58:18;4.13;;;3.03;;
18066;SDS011;9158;51.528;7.192;2023-07-29T00:58:49;3.78;;;3.00;;
18066;SDS011;9158;51.528;7.192;2023-07-29T00:59:28;2.60;;;2.50;;
18066;SDS011;9158;51.528;7.192;2023-07-29T01:00:02;3.13;;;2.83;;
18066;SDS011;9158;51.528;7.192;2023-07-29T01:00:35;3.00;;;2.30;;
18066;SDS011;9158;51.528;7.192;2023-07-29T01:01:08;2.85;;;2.65;;
18066;SDS011;9158;51.528;7.192;2023-07-29T01:01:39;3.10;;;2.90;;
18066;SDS011;9158;51.528;7.192;2023-07-29T01:02:10;2.60;;;2.40;;
18066;SDS011;9158;51.528;7.192;2023-07-29T01:02:41;2.72;;;2.63;;
18066;SDS011;9158;51.528;7.192;2023-07-29T01:03:13;3.05;;;2.80;;
18066;SDS011;9158;51.528;7.192;2023-07-29T01:03:45;3.10;;;2.90;;
18066;SDS011;9158;51.528;7.192;2023-07-29T01:04:17;3.38;;;3.03;;
18066;SDS011;9158;51.528;7.192;2023-07-29T01:04:51;4.30;;;2.72;;
18066;SDS011;9158;51.528;7.192;2023-07-29T01:05:23;5.53;;;2.78;;
18066;SDS011;9158;51.528;7.192;2023-07-29T01:06:05;2.58;;;2.35;;
18066;SDS011;9158;51.528;7.192;2023-07-29T01:06:45;2.63;;;2.53;;
18066;SDS011;9158;51.528;7.192;2023-07-29T01:07:21;3.03;;;2.80;;
18066;SDS011;9158;51.528;7.192;2023-07-29T01:08:01;3.63;;;3.33;;
18066;SDS011;9158;51.528;7.192;2023-07-29T01:08:43;3.40;;;3.15;;
18066;SDS011;9158;51.528;7.192;2023-07-29T01:09:19;3.13;;;2.92;;
18066;SDS011;9158;51.528;7.192;2023-07-29T01:09:58;3.08;;;2.88;;
18066;SDS011;9158;51.528;7.192;2023-07-29T01:10:36;3.05;;;2.85;;
18066;SDS011;9158;51.528;7.192;2023-07-29T01:11:15;5.55;;;2.97;;
18066;SDS011;9158;51.528;7.192;2023-07-29T01:12:04;3.80;;;3.25;;
18066;SDS011;9158;51.528;7.192;2023-07-29T01:12:45;4.45;;;3.75;;
18066;SDS011;9158;51.528;7.192;2023-07-29T01:13:22;4.18;;;3.28;;
18066;SDS011;9158;51.528;7.192;2023-07-29T01:14:01;3.38;;;3.08;;
18066;SDS011;9158;51.528;7.192;2023-07-29T01:14:40;3.33;;;3.00;;
18066;SDS011;9158;51.528;7.192;2023-07-29T01:15:19;3.55;;;3.25;;
18066;SDS011;9158;51.528;7.192;2023-07-29T01:15:58;3.55;;;3.15;;
18066;SDS011;9158;51.528;7.192;2023-07-29T01:16:34;3.35;;;3.15;;
18066;SDS011;9158;51.528;7.192;2023-07-29T01:17:12;3.60;;;3.30;;
18066;SDS011;9158;51.528;7.192;2023-07-29T01:17:48;3.83;;;3.10;;
18066;SDS011;9158;51.528;7.192;2023-07-29T01:18:23;3.80;;;3.50;;
18066;SDS011;9158;51.528;7.192;2023-07-29T01:18:58;3.92;;;3.50;;
18066;SDS011;9158;51.528;7.192;2023-07-29T01:19:53;3.83;;;3.53;;
18066;SDS011;9158;51.528;7.192;2023-07-29T01:20:31;4.60;;;4.20;;
18066;SDS011;9158;51.528;7.192;2023-07-29T01:21:04;3.95;;;3.65;;
18066;SDS011;9158;51.528;7.192;2023-07-29T01:21:39;4.80;;;3.90;;
18066;SDS011;9158;51.528;7.192;2023-07-29T01:22:11;3.97;;;3.67;;
18066;SDS011;9158;51.528;7.192;2023-07-29T01:22:44;4.65;;;3.88;;
18066;SDS011;9158;51.528;7.192;2023-07-29T01:23:16;4.40;;;4.10;;
18066;SDS011;9158;51.528;7.192;2023-07-29T01:23:57;4.50;;;4.10;;
18066;SDS011;9158;51.528;7.192;2023-07-29T01:24:29;3.92;;;3.40;;
18066;SDS011;9158;51.528;7.192;2023-07-29T01:25:00;3.88;;;3.47;;
18066;SDS011;9158;51.528;7.192;2023-07-29T01:25:31;5.15;;;4.18;;
18066;SDS011;9158;51.528;7.192;2023-07-29T01:26:03;4.63;;;4.22;;
18066;SDS011;9158;51.528;7.192;2023-07-29T01:26:34;4.90;;;3.70;;
18066;SDS011;9158;51.528;7.192;2023-07-29T01:27:07;4.25;;;3.85;;
18066;SDS011;9158;51.528;7.192;2023-07-29T01:27:38;7.03;;;4.10;;
18066;SDS011;9158;51.528;7.192;2023-07-29T01:28:10;4.88;;;3.95;;
18066;SDS011;9158;51.528;7.192;2023-07-29T01:28:41;4.45;;;4.05;;
18066;SDS011;9158;51.528;7.192;2023-07-29T01:29:12;4.03;;;3.70;;
18066;SDS011;9158;51.528;7.192;2023-07-29T01:29:43;4.93;;;4.53;;
18066;SDS011;9158;51.528;7.192;2023-07-29T01:30:15;5.15;;;4.20;;
18066;SDS011;9158;51.528;7.192;2023-07-29T01:30:49;7.45;;;4.20;;
18066;SDS011;9158;51.528;7.192;2023-07-29T01:31:25;4.60;;;4.20;;
18066;SDS011;9158;51.528;7.192;2023-07-29T01:32:04;4.28;;;3.88;;
18066;SDS011;9158;51.528;7.192;2023-07-29T01:32:42;5.10;;;4.63;;
18066;SDS011;9158;51.528;7.192;2023-07-29T01:33:16;4.20;;;3.80;;
18066;SDS011;9158;51.528;7.192;2023-07-29T01:33:53;4.05;;;3.75;;
18066;SDS011;9158;51.528;7.192;2023-07-29T01:34:29;5.40;;;4.90;;
18066;SDS011;9158;51.528;7.192;2023-07-29T01:35:08;4.43;;;3.95;;
18066;SDS011;9158;51.528;7.192;2023-07-29T01:35:46;5.80;;;4.30;;
18066;SDS011;9158;51.528;7.192;2023-07-29T01:36:22;4.95;;;4.55;;
18066;SDS011;9158;51.528;7.192;2023-07-29T01:36:57;4.82;;;4.10;;
18066;SDS011;9158;51.528;7.192;2023-07-29T01:37:33;4.80;;;4.40;;
18066;SDS011;9158;51.528;7.192;2023-07-29T01:38:06;4.65;;;4.35;;
18066;SDS011;9158;51.528;7.192;2023-07-29T01:38:43;4.63;;;4.18;;
18066;SDS011;9158;51.528;7.192;2023-07-29T01:39:15;6.07;;;4.82;;
18066;SDS011;9158;51.528;7.192;2023-07-29T01:39:47;4.13;;;3.83;;
18066;SDS011;9158;51.528;7.192;2023-07-29T01:40:21;4.82;;;4.22;;
18066;SDS011;9158;51.528;7.192;2023-07-29T01:40:54;7.63;;;4.60;;
18066;SDS011;9158;51.528;7.192;2023-07-29T01:41:27;4.40;;;4.00;;
18066;SDS011;9158;51.528;7.192;2023-07-29T01:42:00;4.65;;;4.28;;
18066;SDS011;9158;51.528;7.192;2023-07-29T01:42:32;4.70;;;4.30;;
18066;SDS011;9158;51.528;7.192;2023-07-29T01:43:04;6.47;;;4.53;;
18066;SDS011;9158;51.528;7.192;2023-07-29T01:43:37;4.78;;;4.28;;
18066;SDS011;9158;51.528;7.192;2023-07-29T01:44:13;4.70;;;4.40;;
18066;SDS011;9158;51.528;7.192;2023-07-29T01:44:45;5.72;;;5.07;;
18066;SDS011;9158;51.528;7.192;2023-07-29T01:45:17;4.65;;;4.20;;
18066;SDS011;9158;51.528;7.192;2023-07-29T01:45:48;4.80;;;4.40;;
18066;SDS011;9158;51.528;7.192;2023-07-29T01:46:19;7.75;;;7.15;;
18066;SDS011;9158;51.528;7.192;2023-07-29T01:46:52;7.65;;;7.00;;
18066;SDS011;9158;51.528;7.192;2023-07-29T01:47:23;4.47;;;4.10;;
18066;SDS011;9158;51.528;7.192;2023-07-29T01:47:54;4.97;;;4.57;;
18066;SDS011;9158;51.528;7.192;2023-07-29T01:48:25;4.57;;;4.15;;
18066;SDS011;9158;51.528;7.192;2023-07-29T01:48:57;6.35;;;4.70;;
18066;SDS011;9158;51.528;7.192;2023-07-29T01:49:29;4.85;;;4.35;;
18066;SDS011;9158;51.528;7.192;2023-07-29T01:50:00;4.03;;;3.63;;
18066;SDS011;9158;51.528;7.192;2023-07-29T01:50:31;4.20;;;3.90;;
18066;SDS011;9158;51.528;7.192;2023-07-29T01:51:02;4.70;;;3.40;;
18066;SDS011;9158;51.528;7.192;2023-07-29T01:51:34;3.90;;;3.55;;
18066;SDS011;9158;51.528;7.192;2023-07-29T01:52:05;4.13;;;3.70;;
18066;SDS011;9158;51.528;7.192;2023-07-29T01:52:36;4.60;;;4.30;;
18066;SDS011;9158;51.528;7.192;2023-07-29T01:53:07;4.00;;;3.70;;
18066;SDS011;9158;51.528;7.192;2023-07-29T01:53:39;4.13;;;3.83;;
18066;SDS011;9158;51.528;7.192;2023-07-29T01:54:11;4.33;;;3.93;;
18066;SDS011;9158;51.528;7.192;2023-07-29T01:54:42;4.20;;;3.80;;
18066;SDS011;9158;51.528;7.192;2023-07-29T01:55:13;4.10;;;3.80;;
18066;SDS011;9158;51.528;7.192;2023-07-29T01:55:45;4.07;;;3.67;;
18066;SDS011;9158;51.528;7.192;2023-07-29T01:56:16;3.90;;;3.50;;
18066;SDS011;9158;51.528;7.192;2023-07-29T01:56:55;5.00;;;4.30;;
18066;SDS011;9158;51.528;7.192;2023-07-29T01:57:26;4.33;;;4.03;;
18066;SDS011;9158;51.528;7.192;2023-07-29T01:57:58;4.07;;;3.72;;
18066;SDS011;9158;51.528;7.192;2023-07-29T01:58:30;3.78;;;3.50;;
18066;SDS011;9158;51.528;7.192;2023-07-29T01:59:01;3.90;;;3.60;;
18066;SDS011;9158;51.528;7.192;2023-07-29T01:59:32;3.63;;;3.42;;
18066;SDS011;9158;51.528;7.192;2023-07-29T02:00:05;3.30;;;3.10;;
18066;SDS011;9158;51.528;7.192;2023-07-29T02:00:44;5.50;;;3.70;;
18066;SDS011;9158;51.528;7.192;2023-07-29T02:01:15;3.90;;;3.60;;
18066;SDS011;9158;51.528;7.192;2023-07-29T02:01:48;4.78;;;3.45;;
18066;SDS011;9158;51.528;7.192;2023-07-29T02:02:19;4.10;;;3.80;;
18066;SDS011;9158;51.528;7.192;2023-07-29T02:02:50;3.55;;;3.35;;
18066;SDS011;9158;51.528;7.192;2023-07-29T02:03:21;3.65;;;3.33;;
18066;SDS011;9158;51.528;7.192;2023-07-29T02:03:53;3.75;;;3.40;;
18066;SDS011;9158;51.528;7.192;2023-07-29T02:04:25;5.72;;;3.08;;
18066;SDS011;9158;51.528;7.192;2023-07-29T02:04:56;3.22;;;2.95;;
18066;SDS011;9158;51.528;7.192;2023-07-29T02:05:28;3.25;;;3.05;;
18066;SDS011;9158;51.528;7.192;2023-07-29T02:05:59;2.80;;;2.60;;
18066;SDS011;9158;51.528;7.192;2023-07-29T02:06:30;3.67;;;2.95;;
18066;SDS011;9158;51.528;7.192;2023-07-29T02:07:01;3.30;;;3.10;;
18066;SDS011;9158;51.528;7.192;2023-07-29T02:07:33;4.22;;;3.13;;
18066;SDS011;9158;51.528;7.192;2023-07-29T02:08:04;3.20;;;2.88;;
18066;SDS011;9158;51.528;7.192;2023-07-29T02:08:35;3.00;;;2.70;;
18066;SDS011;9158;51.528;7.192;2023-07-29T02:09:06;2.97;;;2.78;;
18066;SDS011;9158;51.528;7.192;2023-07-29T02:09:40;2.80;;;2.60;;
18066;SDS011;9158;51.528;7.192;2023-07-29T02:10:11;3.15;;;2.50;;
18066;SDS011;9158;51.528;7.192;2023-07-29T02:10:42;4.50;;;2.92;;
18066;SDS011;9158;51.528;7.192;2023-07-29T02:11:15;4.15;;;2.88;;
18066;SDS011;9158;51.528;7.192;2023-07-29T02:11:47;2.95;;;2.72;;
18066;SDS011;9158;51.528;7.192;2023-07-29T02:12:18;4.50;;;3.10;;
18066;SDS011;9158;51.528;7.192;2023-07-29T02:12:49;3.77;;;3.47;;
18066;SDS011;9158;51.528;7.192;2023-07-29T02:13:20;3.07;;;2.60;;
18066;SDS011;9158;51.528;7.192;2023-07-29T02:13:51;3.63;;;2.77;;
18066;SDS011;9158;51.528;7.192;2023-07-29T02:14:22;4.75;;;3.33;;
18066;SDS011;9158;51.528;7.192;2023-07-29T02:14:53;2.90;;;2.70;;
18066;SDS011;9158;51.528;7.192;2023-07-29T02:15:24;4.07;;;2.75;;
18066;SDS011;9158;51.528;7.192;2023-07-29T02:15:56;2.88;;;2.70;;
18066;SDS011;9158;51.528;7.192;2023-07-29T02:16:27;3.50;;;3.07;;
18066;SDS011;9158;51.528;7.192;2023-07-29T02:16:59;2.70;;;2.60;;
18066;SDS011;9158;51.528;7.192;2023-07-29T02:17:30;4.23;;;3.30;;
18066;SDS011;9158;51.528;7.192;2023-07-29T02:18:02;3.50;;;3.20;;
18066;SDS011;9158;51.528;7.192;2023-07-29T02:18:33;3.78;;;3.17;;
18066;SDS011;9158;51.528;7.192;2023-07-29T02:19:04;3.05;;;2.85;;
18066;SDS011;9158;51.528;7.192;2023-07-29T02:19:36;3.38;;;2.85;;
18066;SDS011;9158;51.528;7.192;2023-07-29T02:20:08;3.05;;;2.60;;
18066;SDS011;9158;51.528;7.192;2023-07-29T02:20:41;2.95;;;2.85;;
18066;SDS011;9158;51.528;7.192;2023-07-29T02:21:19;3.72;;;2.65;;
18066;SDS011;9158;51.528;7.192;2023-07-29T02:21:51;3.35;;;3.10;;
18066;SDS011;9158;51.528;7.192;2023-07-29T02:22:22;3.67;;;2.80;;
18066;SDS011;9158;51.528;7.192;2023-07-29T02:22:53;2.80;;;2.60;;
18066;SDS011;9158;51.528;7.192;2023-07-29T02:23:24;3.55;;;3.25;;
18066;SDS011;9158;51.528;7.192;2023-07-29T02:23:56;2.58;;;2.38;;
18066;SDS011;9158;51.528;7.192;2023-07-29T02:24:27;3.17;;;2.97;;
18066;SDS011;9158;51.528;7.192;2023-07-29T02:24:59;3.13;;;2.80;;
18066;SDS011;9158;51.528;7.192;2023-07-29T02:25:34;3.08;;;2.60;;
18066;SDS011;9158;51.528;7.192;2023-07-29T02:26:06;3.53;;;3.33;;
18066;SDS011;9158;51.528;7.192;2023-07-29T02:26:37;3.47;;;3.08;;
18066;SDS011;9158;51.528;7.192;2023-07-29T02:27:08;3.10;;;2.80;;
18066;SDS011;9158;51.528;7.192;2023-07-29T02:27:40;3.80;;;2.72;;
18066;SDS011;9158;51.528;7.192;2023-07-29T02:28:11;4.35;;;2.95;;
18066;SDS011;9158;51.528;7.192;2023-07-29T02:28:42;3.17;;;2.93;;
18066;SDS011;9158;51.528;7.192;2023-07-29T02:29:13;3.30;;;3.00;;
18066;SDS011;9158;51.528;7.192;2023-07-29T02:29:45;2.72;;;2.53;;
18066;SDS011;9158;51.528;7.192;2023-07-29T02:30:16;2.90;;;2.70;;
18066;SDS011;9158;51.528;7.192;2023-07-29T02:30:47;4.07;;;3.05;;
18066;SDS011;9158;51.528;7.192;2023-07-29T02:31:38;3.13;;;2.92;;
18066;SDS011;9158;51.528;7.192;2023-07-29T02:32:09;5.20;;;3.00;;
18066;SDS011;9158;51.528;7.192;2023-07-29T02:32:40;3.65;;;3.33;;
18066;SDS011;9158;51.528;7.192;2023-07-29T02:33:11;3.03;;;2.67;;
18066;SDS011;9158;51.528;7.192;2023-07-29T02:33:42;2.67;;;2.53;;
18066;SDS011;9158;51.528;7.192;2023-07-29T02:34:15;3.75;;;2.60;;
18066;SDS011;9158;51.528;7.192;2023-07-29T02:34:46;3.70;;;2.58;;
18066;SDS011;9158;51.528;7.192;2023-07-29T02:35:17;3.20;;;3.00;;
18066;SDS011;9158;51.528;7.192;2023-07-29T02:35:50;3.22;;;3.03;;
18066;SDS011;9158;51.528;7.192;2023-07-29T02:36:20;2.50;;;2.40;;
18066;SDS011;9158;51.528;7.192;2023-07-29T02:36:51;3.35;;;3.05;;
18066;SDS011;9158;51.528;7.192;2023-07-29T02:37:23;3.78;;;3.03;;
18066;SDS011;9158;51.528;7.192;2023-07-29T02:37:54;3.70;;;3.40;;
18066;SDS011;9158;51.528;7.192;2023-07-29T02:38:26;3.40;;;3.20;;
18066;SDS011;9158;51.528;7.192;2023-07-29T02:38:57;2.73;;;2.53;;
18066;SDS011;9158;51.528;7.192;2023-07-29T02:39:28;3.13;;;2.60;;
18066;SDS011;9158;51.528;7.192;2023-07-29T02:40:02;2.60;;;2.50;;
18066;SDS011;9158;51.528;7.192;2023-07-29T02:40:34;2.72;;;2.53;;
18066;SDS011;9158;51.528;7.192;2023-07-29T02:41:05;2.47;;;2.27;;
18066;SDS011;9158;51.528;7.192;2023-07-29T02:41:36;4.15;;;3.00;;
18066;SDS011;9158;51.528;7.192;2023-07-29T02:42:08;2.70;;;2.50;;
18066;SDS011;9158;51.528;7.192;2023-07-29T02:42:39;2.40;;;2.10;;
18066;SDS011;9158;51.528;7.192;2023-07-29T02:43:10;2.43;;;2.33;;
18066;SDS011;9158;51.528;7.192;2023-07-29T02:43:41;2.67;;;2.47;;
18066;SDS011;9158;51.528;7.192;2023-07-29T02:44:14;3.83;;;2.85;;
18066;SDS011;9158;51.528;7.192;2023-07-29T02:44:45;4.25;;;2.50;;
18066;SDS011;9158;51.528;7.192;2023-07-29T02:45:16;2.60;;;2.40;;
18066;SDS011;9158;51.528;7.192;2023-07-29T02:45:48;2.95;;;2.75;;
18066;SDS011;9158;51.528;7.192;2023-07-29T02:46:19;2.75;;;2.60;;
18066;SDS011;9158;51.528;7.192;2023-07-29T02:46:50;4.70;;;2.80;;
18066;SDS011;9158;51.528;7.192;2023-07-29T02:47:24;3.10;;;2.90;;
18066;SDS011;9158;51.528;7.192;2023-07-29T02:47:55;3.23;;;2.70;;
18066;SDS011;9158;51.528;7.192;2023-07-29T02:48:26;3.13;;;2.40;;
18066;SDS011;9158;51.528;7.192;2023-07-29T02:48:58;2.65;;;2.28;;
18066;SDS011;9158;51.528;7.192;2023-07-29T02:49:30;3.30;;;2.22;;
18066;SDS011;9158;51.528;7.192;2023-07-29T02:50:01;2.90;;;2.70;;
18066;SDS011;9158;51.528;7.192;2023-07-29T02:50:34;3.15;;;2.63;;
18066;SDS011;9158;51.528;7.192;2023-07-29T02:51:06;2.95;;;2.75;;
18066;SDS011;9158;51.528;7.192;2023-07-29T02:51:36;2.50;;;2.30;;
18066;SDS011;9158;51.528;7.192;2023-07-29T02:52:07;3.55;;;2.40;;
18066;SDS011;9158;51.528;7.192;2023-07-29T02:52:38;2.67;;;2.47;;
18066;SDS011;9158;51.528;7.192;2023-07-29T02:53:10;2.47;;;2.30;;
18066;SDS011;9158;51.528;7.192;2023-07-29T02:53:41;4.13;;;2.90;;
18066;SDS011;9158;51.528;7.192;2023-07-29T02:54:12;4.22;;;3.13;;
18066;SDS011;9158;51.528;7.192;2023-07-29T02:54:43;4.22;;;2.10;;
18066;SDS011;9158;51.528;7.192;2023-07-29T02:55:17;6.47;;;3.67;;
18066;SDS011;9158;51.528;7.192;2023-07-29T02:55:48;2.40;;;2.30;;
18066;SDS011;9158;51.528;7.192;2023-07-29T02:56:19;2.45;;;2.33;;
18066;SDS011;9158;51.528;7.192;2023-07-29T02:56:50;2.70;;;2.50;;
18066;SDS011;9158;51.528;7.192;2023-07-29T02:57:22;6.05;;;3.25;;
18066;SDS011;9158;51.528;7.192;2023-07-29T02:57:53;6.93;;;2.90;;
18066;SDS011;9158;51.528;7.192;2023-07-29T02:58:24;3.30;;;2.60;;
18066;SDS011;9158;51.528;7.192;2023-07-29T02:58:56;4.20;;;2.90;;
18066;SDS011;9158;51.528;7.192;2023-07-29T02:59:28;3.55;;;2.80;;
18066;SDS011;9158;51.528;7.192;2023-07-29T02:59:59;2.60;;;2.40;;
18066;SDS011;9158;51.528;7.192;2023-07-29T03:00:30;3.30;;;2.30;;
18066;SDS011;9158;51.528;7.192;2023-07-29T03:01:02;3.10;;;2.90;;
18066;SDS011;9158;51.528;7.192;2023-07-29T03:01:35;5.28;;;2.65;;
18066;SDS011;9158;51.528;7.192;2023-07-29T03:02:06;2.55;;;2.40;;
18066;SDS011;9158;51.528;7.192;2023-07-29T03:02:37;4.13;;;2.57;;
18066;SDS011;9158;51.528;7.192;2023-07-29T03:03:08;2.90;;;2.65;;
18066;SDS011;9158;51.528;7.192;2023-07-29T03:03:40;3.55;;;2.38;;
18066;SDS011;9158;51.528;7.192;2023-07-29T03:04:11;2.70;;;2.50;;
18066;SDS011;9158;51.528;7.192;2023-07-29T03:04:43;2.78;;;2.58;;
18066;SDS011;9158;51.528;7.192;2023-07-29T03:05:14;4.68;;;3.15;;
18066;SDS011;9158;51.528;7.192;2023-07-29T03:05:46;3.65;;;2.70;;
18066;SDS011;9158;51.528;7.192;2023-07-29T03:06:17;3.13;;;2.80;;
18066;SDS011;9158;51.528;7.192;2023-07-29T03:06:49;2.63;;;2.42;;
18066;SDS011;9158;51.528;7.192;2023-07-29T03:07:21;2.72;;;2.50;;
18066;SDS011;9158;51.528;7.192;2023-07-29T03:07:52;2.80;;;2.60;;
18066;SDS011;9158;51.528;7.192;2023-07-29T03:08:23;2.73;;;2.40;;
18066;SDS011;9158;51.528;7.192;2023-07-29T03:08:54;2.95;;;2.65;;
18066;SDS011;9158;51.528;7.192;2023-07-29T03:09:26;5.35;;;3.08;;
18066;SDS011;9158;51.528;7.192;2023-07-29T03:09:57;3.17;;;2.97;;
18066;SDS011;9158;51.528;7.192;2023-07-29T03:10:29;3.47;;;3.17;;
18066;SDS011;9158;51.528;7.192;2023-07-29T03:11:04;3.38;;;2.67;;
18066;SDS011;9158;51.528;7.192;2023-07-29T03:11:37;4.40;;;3.13;;
18066;SDS011;9158;51.528;7.192;2023-07-29T03:12:08;3.30;;;3.00;;
18066;SDS011;9158;51.528;7.192;2023-07-29T03:12:39;4.70;;;3.00;;
18066;SDS011;9158;51.528;7.192;2023-07-29T03:13:10;3.97;;;3.17;;
18066;SDS011;9158;51.528;7.192;2023-07-29T03:13:42;3.28;;;2.75;;
18066;SDS011;9158;51.528;7.192;2023-07-29T03:14:13;2.60;;;2.40;;
18066;SDS011;9158;51.528;7.192;2023-07-29T03:14:47;3.80;;;3.20;;
18066;SDS011;9158;51.528;7.192;2023-07-29T03:15:19;3.25;;;2.55;;
18066;SDS011;9158;51.528;7.192;2023-07-29T03:15:53;3.97;;;3.25;;
18066;SDS011;9158;51.528;7.192;2023-07-29T03:16:24;3.43;;;3.13;;
18066;SDS011;9158;51.528;7.192;2023-07-29T03:17:01;4.25;;;2.90;;
18066;SDS011;9158;51.528;7.192;2023-07-29T03:17:34;2.67;;;2.47;;
18066;SDS011;9158;51.528;7.192;2023-07-29T03:18:05;3.37;;;2.97;;
18066;SDS011;9158;51.528;7.192;2023-07-29T03:18:36;3.92;;;3.53;;